sensor_id;sensor_type;location;lat;lon;timestamp;P1;durP1;ratioP1;P2;durP2;ratioP2
75512;SDS011;64090;49.770;18.760;2022-11-14T00:01:20;45.90;;;27.50;;
75512;SDS011;64090;49.770;18.760;2022-11-14T00:03:48;46.80;;;31.30;;
75512;SDS011;64090;49.770;18.760;2022-11-14T00:06:17;41.80;;;26.60;;
75512;SDS011;64090;49.770;18.760;2022-11-14T00:08:45;45.00;;;26.60;;
75512;SDS011;64090;49.770;18.760;2022-11-14T00:11:13;44.80;;;27.00;;
75512;SDS011;64090;49.770;18.760;2022-11-14T00:13:41;51.00;;;29.60;;
75512;SDS011;64090;49.770;18.760;2022-11-14T00:16:08;47.60;;;27.40;;
75512;SDS011;64090;49.770;18.760;2022-11-14T00:18:36;47.50;;;28.20;;
75512;SDS011;64090;49.770;18.760;2022-11-14T00:21:04;43.00;;;26.00;;
75512;SDS011;64090;49.770;18.760;2022-11-14T00:23:32;44.50;;;27.90;;
75512;SDS011;64090;49.770;18.760;2022-11-14T00:26:00;45.80;;;28.50;;
75512;SDS011;64090;49.770;18.760;2022-11-14T00:28:28;47.10;;;29.90;;
75512;SDS011;64090;49.770;18.760;2022-11-14T00:30:56;44.20;;;33.80;;
75512;SDS011;64090;49.770;18.760;2022-11-14T00:33:24;42.20;;;27.80;;
75512;SDS011;64090;49.770;18.760;2022-11-14T00:35:55;45.10;;;26.80;;
75512;SDS011;64090;49.770;18.760;2022-11-14T00:38:23;35.10;;;22.60;;
75512;SDS011;64090;49.770;18.760;2022-11-14T00:40:51;47.00;;;26.80;;
75512;SDS011;64090;49.770;18.760;2022-11-14T00:43:19;50.70;;;33.40;;
75512;SDS011;64090;49.770;18.760;2022-11-14T00:45:47;47.10;;;27.60;;
75512;SDS011;64090;49.770;18.760;2022-11-14T00:48:15;41.80;;;27.00;;
75512;SDS011;64090;49.770;18.760;2022-11-14T00:50:43;46.80;;;25.90;;
75512;SDS011;64090;49.770;18.760;2022-11-14T00:53:11;46.00;;;28.50;;
75512;SDS011;64090;49.770;18.760;2022-11-14T00:55:39;43.30;;;26.50;;
75512;SDS011;64090;49.770;18.760;2022-11-14T00:58:08;41.70;;;25.00;;
75512;SDS011;64090;49.770;18.760;2022-11-14T01:00:36;38.80;;;25.60;;
75512;SDS011;64090;49.770;18.760;2022-11-14T01:03:04;45.90;;;27.00;;
75512;SDS011;64090;49.770;18.760;2022-11-14T01:05:32;35.00;;;20.40;;
75512;SDS011;64090;49.770;18.760;2022-11-14T01:07:59;21.40;;;10.40;;
75512;SDS011;64090;49.770;18.760;2022-11-14T01:10:27;43.70;;;26.30;;
75512;SDS011;64090;49.770;18.760;2022-11-14T01:12:55;47.90;;;28.10;;
75512;SDS011;64090;49.770;18.760;2022-11-14T01:15:23;40.20;;;24.50;;
75512;SDS011;64090;49.770;18.760;2022-11-14T01:17:51;43.10;;;29.30;;
75512;SDS011;64090;49.770;18.760;2022-11-14T01:20:19;36.00;;;22.80;;
75512;SDS011;64090;49.770;18.760;2022-11-14T01:22:47;41.60;;;29.60;;
75512;SDS011;64090;49.770;18.760;2022-11-14T01:25:14;41.40;;;27.70;;
75512;SDS011;64090;49.770;18.760;2022-11-14T01:27:42;40.40;;;25.90;;
75512;SDS011;64090;49.770;18.760;2022-11-14T01:30:10;41.10;;;24.80;;
75512;SDS011;64090;49.770;18.760;2022-11-14T01:32:39;41.70;;;25.40;;
75512;SDS011;64090;49.770;18.760;2022-11-14T01:35:07;39.40;;;26.60;;
75512;SDS011;64090;49.770;18.760;2022-11-14T01:37:35;44.60;;;29.60;;
75512;SDS011;64090;49.770;18.760;2022-11-14T01:40:02;43.40;;;26.50;;
75512;SDS011;64090;49.770;18.760;2022-11-14T01:42:30;44.70;;;26.40;;
75512;SDS011;64090;49.770;18.760;2022-11-14T01:44:58;41.20;;;26.90;;
75512;SDS011;64090;49.770;18.760;2022-11-14T01:47:28;41.50;;;26.20;;
75512;SDS011;64090;49.770;18.760;2022-11-14T01:49:58;41.40;;;27.20;;
75512;SDS011;64090;49.770;18.760;2022-11-14T01:52:30;41.80;;;27.00;;
75512;SDS011;64090;49.770;18.760;2022-11-14T01:55:04;45.50;;;27.20;;
75512;SDS011;64090;49.770;18.760;2022-11-14T01:57:35;46.70;;;27.60;;
75512;SDS011;64090;49.770;18.760;2022-11-14T02:00:08;47.10;;;28.40;;
75512;SDS011;64090;49.770;18.760;2022-11-14T02:02:38;45.80;;;28.40;;
75512;SDS011;64090;49.770;18.760;2022-11-14T02:05:07;45.50;;;28.70;;
75512;SDS011;64090;49.770;18.760;2022-11-14T02:07:38;41.60;;;26.80;;
75512;SDS011;64090;49.770;18.760;2022-11-14T02:10:14;47.10;;;28.50;;
75512;SDS011;64090;49.770;18.760;2022-11-14T02:12:44;45.90;;;28.10;;
75512;SDS011;64090;49.770;18.760;2022-11-14T02:15:13;44.40;;;26.80;;
75512;SDS011;64090;49.770;18.760;2022-11-14T02:17:42;44.40;;;28.30;;
75512;SDS011;64090;49.770;18.760;2022-11-14T02:22:39;47.30;;;28.10;;
75512;SDS011;64090;49.770;18.760;2022-11-14T02:25:08;43.50;;;25.50;;
75512;SDS011;64090;49.770;18.760;2022-11-14T02:27:39;46.80;;;29.30;;
75512;SDS011;64090;49.770;18.760;2022-11-14T02:30:18;45.80;;;29.30;;
75512;SDS011;64090;49.770;18.760;2022-11-14T02:32:48;50.10;;;28.80;;
75512;SDS011;64090;49.770;18.760;2022-11-14T02:35:36;47.80;;;28.10;;
75512;SDS011;64090;49.770;18.760;2022-11-14T02:38:04;46.40;;;27.60;;
75512;SDS011;64090;49.770;18.760;2022-11-14T02:40:32;47.40;;;29.00;;
75512;SDS011;64090;49.770;18.760;2022-11-14T02:43:00;45.70;;;30.40;;
75512;SDS011;64090;49.770;18.760;2022-11-14T02:45:27;49.10;;;29.80;;
75512;SDS011;64090;49.770;18.760;2022-11-14T02:47:55;48.70;;;30.40;;
75512;SDS011;64090;49.770;18.760;2022-11-14T02:50:23;40.50;;;25.40;;
75512;SDS011;64090;49.770;18.760;2022-11-14T02:52:51;48.60;;;28.50;;
75512;SDS011;64090;49.770;18.760;2022-11-14T02:55:20;47.80;;;28.50;;
75512;SDS011;64090;49.770;18.760;2022-11-14T02:57:48;38.70;;;24.90;;
75512;SDS011;64090;49.770;18.760;2022-11-14T03:00:16;47.70;;;27.20;;
75512;SDS011;64090;49.770;18.760;2022-11-14T03:02:45;43.20;;;29.60;;
75512;SDS011;64090;49.770;18.760;2022-11-14T03:05:12;41.00;;;25.20;;
75512;SDS011;64090;49.770;18.760;2022-11-14T03:07:40;42.90;;;25.60;;
75512;SDS011;64090;49.770;18.760;2022-11-14T03:10:08;44.60;;;26.50;;
75512;SDS011;64090;49.770;18.760;2022-11-14T03:12:37;45.00;;;26.30;;
75512;SDS011;64090;49.770;18.760;2022-11-14T03:15:05;40.20;;;24.80;;
75512;SDS011;64090;49.770;18.760;2022-11-14T03:17:34;44.30;;;29.20;;
75512;SDS011;64090;49.770;18.760;2022-11-14T03:20:02;42.10;;;25.50;;
75512;SDS011;64090;49.770;18.760;2022-11-14T03:22:30;43.10;;;28.70;;
75512;SDS011;64090;49.770;18.760;2022-11-14T03:24:58;44.80;;;27.60;;
75512;SDS011;64090;49.770;18.760;2022-11-14T03:27:26;43.00;;;24.70;;
75512;SDS011;64090;49.770;18.760;2022-11-14T03:29:54;46.80;;;26.20;;
75512;SDS011;64090;49.770;18.760;2022-11-14T03:32:21;46.70;;;25.10;;
75512;SDS011;64090;49.770;18.760;2022-11-14T03:34:49;44.80;;;25.20;;
75512;SDS011;64090;49.770;18.760;2022-11-14T03:37:17;26.80;;;13.40;;
75512;SDS011;64090;49.770;18.760;2022-11-14T03:39:45;43.00;;;24.70;;
75512;SDS011;64090;49.770;18.760;2022-11-14T03:42:13;42.50;;;23.50;;
75512;SDS011;64090;49.770;18.760;2022-11-14T03:44:41;46.00;;;30.00;;
75512;SDS011;64090;49.770;18.760;2022-11-14T03:47:08;34.90;;;22.60;;
75512;SDS011;64090;49.770;18.760;2022-11-14T03:49:36;47.50;;;30.30;;
75512;SDS011;64090;49.770;18.760;2022-11-14T03:52:04;44.70;;;25.60;;
75512;SDS011;64090;49.770;18.760;2022-11-14T03:54:32;42.30;;;26.60;;
75512;SDS011;64090;49.770;18.760;2022-11-14T03:57:00;43.40;;;29.40;;
75512;SDS011;64090;49.770;18.760;2022-11-14T03:59:27;41.40;;;28.40;;
75512;SDS011;64090;49.770;18.760;2022-11-14T04:01:55;41.50;;;25.40;;
75512;SDS011;64090;49.770;18.760;2022-11-14T04:04:23;44.80;;;26.10;;
75512;SDS011;64090;49.770;18.760;2022-11-14T04:06:51;45.20;;;27.30;;
75512;SDS011;64090;49.770;18.760;2022-11-14T04:09:19;43.90;;;25.70;;
75512;SDS011;64090;49.770;18.760;2022-11-14T04:11:46;39.80;;;25.30;;
75512;SDS011;64090;49.770;18.760;2022-11-14T04:14:14;40.30;;;25.40;;
75512;SDS011;64090;49.770;18.760;2022-11-14T04:16:42;48.80;;;27.90;;
75512;SDS011;64090;49.770;18.760;2022-11-14T04:19:10;43.40;;;26.30;;
75512;SDS011;64090;49.770;18.760;2022-11-14T04:21:38;44.20;;;25.70;;
75512;SDS011;64090;49.770;18.760;2022-11-14T04:24:05;43.30;;;24.70;;
75512;SDS011;64090;49.770;18.760;2022-11-14T04:26:37;38.20;;;24.00;;
75512;SDS011;64090;49.770;18.760;2022-11-14T04:29:05;39.70;;;25.00;;
75512;SDS011;64090;49.770;18.760;2022-11-14T04:31:33;43.80;;;27.90;;
75512;SDS011;64090;49.770;18.760;2022-11-14T04:34:01;33.90;;;22.90;;
75512;SDS011;64090;49.770;18.760;2022-11-14T04:36:28;41.30;;;21.30;;
75512;SDS011;64090;49.770;18.760;2022-11-14T04:38:56;39.30;;;24.90;;
75512;SDS011;64090;49.770;18.760;2022-11-14T04:41:25;38.80;;;24.20;;
75512;SDS011;64090;49.770;18.760;2022-11-14T04:43:52;38.90;;;24.20;;
75512;SDS011;64090;49.770;18.760;2022-11-14T04:46:20;35.40;;;23.70;;
75512;SDS011;64090;49.770;18.760;2022-11-14T04:48:48;39.70;;;25.70;;
75512;SDS011;64090;49.770;18.760;2022-11-14T04:51:16;36.20;;;24.60;;
75512;SDS011;64090;49.770;18.760;2022-11-14T04:53:44;40.70;;;26.40;;
75512;SDS011;64090;49.770;18.760;2022-11-14T04:56:12;39.70;;;23.60;;
75512;SDS011;64090;49.770;18.760;2022-11-14T04:58:40;40.70;;;23.10;;
75512;SDS011;64090;49.770;18.760;2022-11-14T05:01:08;37.70;;;22.10;;
75512;SDS011;64090;49.770;18.760;2022-11-14T05:03:37;42.20;;;25.70;;
75512;SDS011;64090;49.770;18.760;2022-11-14T05:06:05;42.20;;;26.60;;
75512;SDS011;64090;49.770;18.760;2022-11-14T05:08:33;37.70;;;23.30;;
75512;SDS011;64090;49.770;18.760;2022-11-14T05:11:01;38.60;;;23.70;;
75512;SDS011;64090;49.770;18.760;2022-11-14T05:13:29;41.60;;;27.20;;
75512;SDS011;64090;49.770;18.760;2022-11-14T05:15:58;41.20;;;23.90;;
75512;SDS011;64090;49.770;18.760;2022-11-14T05:18:27;36.00;;;23.60;;
75512;SDS011;64090;49.770;18.760;2022-11-14T05:20:58;40.10;;;26.00;;
75512;SDS011;64090;49.770;18.760;2022-11-14T05:23:27;42.10;;;25.10;;
75512;SDS011;64090;49.770;18.760;2022-11-14T05:25:59;41.70;;;25.30;;
75512;SDS011;64090;49.770;18.760;2022-11-14T05:28:32;38.30;;;22.70;;
75512;SDS011;64090;49.770;18.760;2022-11-14T05:31:03;38.00;;;22.80;;
75512;SDS011;64090;49.770;18.760;2022-11-14T05:33:32;36.70;;;24.00;;
75512;SDS011;64090;49.770;18.760;2022-11-14T05:36:05;38.70;;;23.70;;
75512;SDS011;64090;49.770;18.760;2022-11-14T05:38:35;38.10;;;22.00;;
75512;SDS011;64090;49.770;18.760;2022-11-14T05:41:10;38.90;;;23.10;;
75512;SDS011;64090;49.770;18.760;2022-11-14T05:43:41;36.80;;;22.80;;
75512;SDS011;64090;49.770;18.760;2022-11-14T05:46:10;36.80;;;22.20;;
75512;SDS011;64090;49.770;18.760;2022-11-14T05:48:39;41.30;;;24.90;;
75512;SDS011;64090;49.770;18.760;2022-11-14T05:51:09;40.30;;;23.20;;
75512;SDS011;64090;49.770;18.760;2022-11-14T05:53:39;38.10;;;22.90;;
75512;SDS011;64090;49.770;18.760;2022-11-14T05:56:09;35.40;;;22.10;;
75512;SDS011;64090;49.770;18.760;2022-11-14T06:01:11;39.70;;;25.20;;
75512;SDS011;64090;49.770;18.760;2022-11-14T06:03:45;39.10;;;22.40;;
75512;SDS011;64090;49.770;18.760;2022-11-14T06:06:15;37.20;;;21.90;;
75512;SDS011;64090;49.770;18.760;2022-11-14T06:08:45;39.30;;;22.70;;
75512;SDS011;64090;49.770;18.760;2022-11-14T06:11:15;35.00;;;21.90;;
75512;SDS011;64090;49.770;18.760;2022-11-14T06:13:45;34.40;;;23.90;;
75512;SDS011;64090;49.770;18.760;2022-11-14T06:16:14;34.20;;;21.40;;
75512;SDS011;64090;49.770;18.760;2022-11-14T06:18:43;35.00;;;22.90;;
75512;SDS011;64090;49.770;18.760;2022-11-14T06:21:16;34.30;;;21.00;;
75512;SDS011;64090;49.770;18.760;2022-11-14T06:23:46;31.30;;;19.90;;
75512;SDS011;64090;49.770;18.760;2022-11-14T06:28:51;40.50;;;26.20;;
75512;SDS011;64090;49.770;18.760;2022-11-14T06:31:20;37.90;;;23.70;;
75512;SDS011;64090;49.770;18.760;2022-11-14T06:33:49;35.90;;;22.60;;
75512;SDS011;64090;49.770;18.760;2022-11-14T06:36:17;35.10;;;22.10;;
75512;SDS011;64090;49.770;18.760;2022-11-14T06:38:45;33.50;;;20.30;;
75512;SDS011;64090;49.770;18.760;2022-11-14T06:41:14;31.70;;;19.90;;
75512;SDS011;64090;49.770;18.760;2022-11-14T06:43:45;33.00;;;23.00;;
75512;SDS011;64090;49.770;18.760;2022-11-14T06:46:17;26.70;;;18.40;;
75512;SDS011;64090;49.770;18.760;2022-11-14T06:48:46;30.90;;;19.80;;
75512;SDS011;64090;49.770;18.760;2022-11-14T06:51:15;37.50;;;26.40;;
75512;SDS011;64090;49.770;18.760;2022-11-14T06:53:44;34.90;;;21.00;;
75512;SDS011;64090;49.770;18.760;2022-11-14T06:56:13;38.70;;;25.50;;
75512;SDS011;64090;49.770;18.760;2022-11-14T07:01:13;33.70;;;21.20;;
75512;SDS011;64090;49.770;18.760;2022-11-14T07:03:43;33.60;;;20.90;;
75512;SDS011;64090;49.770;18.760;2022-11-14T07:06:13;33.50;;;21.10;;
75512;SDS011;64090;49.770;18.760;2022-11-14T07:08:43;33.90;;;21.70;;
75512;SDS011;64090;49.770;18.760;2022-11-14T07:11:11;33.30;;;21.60;;
75512;SDS011;64090;49.770;18.760;2022-11-14T07:13:52;31.90;;;20.40;;
75512;SDS011;64090;49.770;18.760;2022-11-14T07:16:26;33.20;;;20.50;;
75512;SDS011;64090;49.770;18.760;2022-11-14T07:18:56;33.70;;;21.50;;
75512;SDS011;64090;49.770;18.760;2022-11-14T07:21:25;32.20;;;20.20;;
75512;SDS011;64090;49.770;18.760;2022-11-14T07:23:55;36.70;;;22.50;;
75512;SDS011;64090;49.770;18.760;2022-11-14T07:26:23;32.40;;;20.80;;
75512;SDS011;64090;49.770;18.760;2022-11-14T07:28:51;35.30;;;24.30;;
75512;SDS011;64090;49.770;18.760;2022-11-14T07:31:25;32.60;;;23.40;;
75512;SDS011;64090;49.770;18.760;2022-11-14T07:33:53;30.00;;;22.50;;
75512;SDS011;64090;49.770;18.760;2022-11-14T07:36:21;28.40;;;19.50;;
75512;SDS011;64090;49.770;18.760;2022-11-14T07:38:49;27.10;;;17.80;;
75512;SDS011;64090;49.770;18.760;2022-11-14T07:41:17;28.00;;;16.70;;
75512;SDS011;64090;49.770;18.760;2022-11-14T07:43:45;32.40;;;20.50;;
75512;SDS011;64090;49.770;18.760;2022-11-14T07:46:14;30.60;;;21.20;;
75512;SDS011;64090;49.770;18.760;2022-11-14T07:48:44;32.30;;;21.30;;
75512;SDS011;64090;49.770;18.760;2022-11-14T07:51:16;31.30;;;20.10;;
75512;SDS011;64090;49.770;18.760;2022-11-14T07:53:46;29.20;;;18.50;;
75512;SDS011;64090;49.770;18.760;2022-11-14T07:56:14;27.20;;;17.60;;
75512;SDS011;64090;49.770;18.760;2022-11-14T07:58:43;22.30;;;13.50;;
75512;SDS011;64090;49.770;18.760;2022-11-14T08:01:12;32.20;;;18.80;;
75512;SDS011;64090;49.770;18.760;2022-11-14T08:03:40;28.60;;;18.50;;
75512;SDS011;64090;49.770;18.760;2022-11-14T08:06:13;29.40;;;17.90;;
75512;SDS011;64090;49.770;18.760;2022-11-14T08:08:42;28.60;;;18.10;;
75512;SDS011;64090;49.770;18.760;2022-11-14T08:11:10;29.10;;;19.50;;
75512;SDS011;64090;49.770;18.760;2022-11-14T08:13:38;19.10;;;10.90;;
75512;SDS011;64090;49.770;18.760;2022-11-14T08:16:07;28.30;;;18.40;;
75512;SDS011;64090;49.770;18.760;2022-11-14T08:18:40;30.20;;;19.60;;
75512;SDS011;64090;49.770;18.760;2022-11-14T08:21:08;19.50;;;12.90;;
75512;SDS011;64090;49.770;18.760;2022-11-14T08:23:35;29.00;;;17.60;;
75512;SDS011;64090;49.770;18.760;2022-11-14T08:26:03;26.50;;;16.60;;
75512;SDS011;64090;49.770;18.760;2022-11-14T08:28:31;27.20;;;17.40;;
75512;SDS011;64090;49.770;18.760;2022-11-14T08:31:00;26.10;;;17.60;;
75512;SDS011;64090;49.770;18.760;2022-11-14T08:33:30;27.50;;;18.30;;
75512;SDS011;64090;49.770;18.760;2022-11-14T08:35:59;28.60;;;18.30;;
75512;SDS011;64090;49.770;18.760;2022-11-14T08:38:29;18.80;;;12.50;;
75512;SDS011;64090;49.770;18.760;2022-11-14T08:40:59;28.90;;;19.20;;
75512;SDS011;64090;49.770;18.760;2022-11-14T08:43:31;32.90;;;20.00;;
75512;SDS011;64090;49.770;18.760;2022-11-14T08:46:02;29.10;;;18.80;;
75512;SDS011;64090;49.770;18.760;2022-11-14T08:48:31;32.70;;;22.20;;
75512;SDS011;64090;49.770;18.760;2022-11-14T08:51:04;30.10;;;18.80;;
75512;SDS011;64090;49.770;18.760;2022-11-14T08:53:33;31.80;;;19.30;;
75512;SDS011;64090;49.770;18.760;2022-11-14T08:56:01;17.30;;;11.30;;
75512;SDS011;64090;49.770;18.760;2022-11-14T08:58:29;32.70;;;19.50;;
75512;SDS011;64090;49.770;18.760;2022-11-14T09:01:00;34.40;;;21.20;;
75512;SDS011;64090;49.770;18.760;2022-11-14T09:03:33;36.20;;;19.90;;
75512;SDS011;64090;49.770;18.760;2022-11-14T09:06:01;34.60;;;19.70;;
75512;SDS011;64090;49.770;18.760;2022-11-14T09:08:30;32.30;;;20.30;;
75512;SDS011;64090;49.770;18.760;2022-11-14T09:10:58;33.80;;;18.60;;
75512;SDS011;64090;49.770;18.760;2022-11-14T09:13:33;37.10;;;22.60;;
75512;SDS011;64090;49.770;18.760;2022-11-14T09:16:01;35.90;;;21.90;;
75512;SDS011;64090;49.770;18.760;2022-11-14T09:18:29;36.00;;;21.80;;
75512;SDS011;64090;49.770;18.760;2022-11-14T09:20:59;35.10;;;20.60;;
75512;SDS011;64090;49.770;18.760;2022-11-14T09:23:31;33.60;;;20.30;;
75512;SDS011;64090;49.770;18.760;2022-11-14T09:26:03;37.90;;;23.50;;
75512;SDS011;64090;49.770;18.760;2022-11-14T09:28:32;40.70;;;22.90;;
75512;SDS011;64090;49.770;18.760;2022-11-14T09:31:04;47.20;;;25.00;;
75512;SDS011;64090;49.770;18.760;2022-11-14T09:33:34;43.70;;;24.30;;
75512;SDS011;64090;49.770;18.760;2022-11-14T09:36:04;38.40;;;22.10;;
75512;SDS011;64090;49.770;18.760;2022-11-14T09:38:34;42.60;;;23.80;;
75512;SDS011;64090;49.770;18.760;2022-11-14T09:41:20;39.60;;;23.00;;
75512;SDS011;64090;49.770;18.760;2022-11-14T09:54:52;44.20;;;25.10;;
75512;SDS011;64090;49.770;18.760;2022-11-14T09:57:23;40.00;;;24.70;;
75512;SDS011;64090;49.770;18.760;2022-11-14T09:59:52;43.20;;;24.20;;
75512;SDS011;64090;49.770;18.760;2022-11-14T10:02:33;44.50;;;26.30;;
75512;SDS011;64090;49.770;18.760;2022-11-14T10:07:44;44.40;;;26.50;;
75512;SDS011;64090;49.770;18.760;2022-11-14T10:10:55;43.00;;;24.40;;
75512;SDS011;64090;49.770;18.760;2022-11-14T10:30:40;50.90;;;28.90;;
75512;SDS011;64090;49.770;18.760;2022-11-14T10:33:29;54.50;;;28.40;;
75512;SDS011;64090;49.770;18.760;2022-11-14T10:39:15;46.90;;;25.90;;
75512;SDS011;64090;49.770;18.760;2022-11-14T10:41:49;45.50;;;26.50;;
75512;SDS011;64090;49.770;18.760;2022-11-14T10:44:29;44.60;;;26.60;;
75512;SDS011;64090;49.770;18.760;2022-11-14T10:47:03;51.20;;;30.80;;
75512;SDS011;64090;49.770;18.760;2022-11-14T10:49:37;46.70;;;27.10;;
75512;SDS011;64090;49.770;18.760;2022-11-14T10:52:55;44.90;;;28.90;;
75512;SDS011;64090;49.770;18.760;2022-11-14T10:55:27;43.20;;;25.30;;
75512;SDS011;64090;49.770;18.760;2022-11-14T10:58:15;48.10;;;27.90;;
75512;SDS011;64090;49.770;18.760;2022-11-14T11:00:43;51.50;;;29.70;;
75512;SDS011;64090;49.770;18.760;2022-11-14T11:03:11;49.70;;;28.50;;
75512;SDS011;64090;49.770;18.760;2022-11-14T11:05:44;50.50;;;29.90;;
75512;SDS011;64090;49.770;18.760;2022-11-14T11:08:20;48.90;;;27.30;;
75512;SDS011;64090;49.770;18.760;2022-11-14T11:13:58;46.70;;;28.50;;
75512;SDS011;64090;49.770;18.760;2022-11-14T11:16:27;49.60;;;30.30;;
75512;SDS011;64090;49.770;18.760;2022-11-14T11:19:30;45.50;;;28.20;;
75512;SDS011;64090;49.770;18.760;2022-11-14T11:21:51;44.80;;;28.40;;
75512;SDS011;64090;49.770;18.760;2022-11-14T11:24:32;46.30;;;28.80;;
75512;SDS011;64090;49.770;18.760;2022-11-14T11:27:12;40.30;;;24.90;;
75512;SDS011;64090;49.770;18.760;2022-11-14T11:32:47;35.80;;;20.50;;
75512;SDS011;64090;49.770;18.760;2022-11-14T11:35:15;35.70;;;20.20;;
75512;SDS011;64090;49.770;18.760;2022-11-14T11:37:51;33.10;;;19.80;;
75512;SDS011;64090;49.770;18.760;2022-11-14T11:40:23;38.80;;;21.40;;
75512;SDS011;64090;49.770;18.760;2022-11-14T11:42:57;36.50;;;21.30;;
75512;SDS011;64090;49.770;18.760;2022-11-14T11:45:53;41.40;;;22.90;;
75512;SDS011;64090;49.770;18.760;2022-11-14T11:48:22;35.30;;;19.00;;
75512;SDS011;64090;49.770;18.760;2022-11-14T11:51:01;34.50;;;18.90;;
75512;SDS011;64090;49.770;18.760;2022-11-14T11:53:35;38.00;;;22.70;;
75512;SDS011;64090;49.770;18.760;2022-11-14T11:56:21;38.60;;;21.50;;
75512;SDS011;64090;49.770;18.760;2022-11-14T11:58:54;36.70;;;18.70;;
75512;SDS011;64090;49.770;18.760;2022-11-14T12:01:43;31.60;;;17.10;;
75512;SDS011;64090;49.770;18.760;2022-11-14T12:04:11;42.90;;;24.80;;
75512;SDS011;64090;49.770;18.760;2022-11-14T12:06:47;33.70;;;18.40;;
75512;SDS011;64090;49.770;18.760;2022-11-14T12:09:44;42.10;;;22.40;;
75512;SDS011;64090;49.770;18.760;2022-11-14T12:12:41;38.90;;;20.20;;
75512;SDS011;64090;49.770;18.760;2022-11-14T12:15:34;40.50;;;22.70;;
75512;SDS011;64090;49.770;18.760;2022-11-14T12:35:24;51.80;;;29.80;;
75512;SDS011;64090;49.770;18.760;2022-11-14T12:37:57;51.20;;;29.10;;
75512;SDS011;64090;49.770;18.760;2022-11-14T12:40:29;44.90;;;25.10;;
75512;SDS011;64090;49.770;18.760;2022-11-14T12:42:59;46.90;;;28.50;;
75512;SDS011;64090;49.770;18.760;2022-11-14T12:50:52;44.70;;;27.60;;
75512;SDS011;64090;49.770;18.760;2022-11-14T12:56:07;45.60;;;27.90;;
75512;SDS011;64090;49.770;18.760;2022-11-14T13:03:46;44.60;;;27.50;;
75512;SDS011;64090;49.770;18.760;2022-11-14T13:09:30;46.10;;;27.70;;
75512;SDS011;64090;49.770;18.760;2022-11-14T13:12:24;47.00;;;28.00;;
75512;SDS011;64090;49.770;18.760;2022-11-14T13:15:24;47.50;;;26.40;;
75512;SDS011;64090;49.770;18.760;2022-11-14T13:18:20;48.80;;;28.90;;
75512;SDS011;64090;49.770;18.760;2022-11-14T13:21:17;51.90;;;31.10;;
75512;SDS011;64090;49.770;18.760;2022-11-14T13:26:43;57.10;;;34.10;;
75512;SDS011;64090;49.770;18.760;2022-11-14T13:32:08;40.70;;;24.10;;
75512;SDS011;64090;49.770;18.760;2022-11-14T13:34:39;53.70;;;36.90;;
75512;SDS011;64090;49.770;18.760;2022-11-14T13:37:17;56.80;;;33.90;;
75512;SDS011;64090;49.770;18.760;2022-11-14T13:39:58;55.90;;;35.90;;
75512;SDS011;64090;49.770;18.760;2022-11-14T13:42:41;54.70;;;31.20;;
75512;SDS011;64090;49.770;18.760;2022-11-14T13:48:14;46.80;;;29.30;;
75512;SDS011;64090;49.770;18.760;2022-11-14T13:50:54;53.40;;;30.50;;
75512;SDS011;64090;49.770;18.760;2022-11-14T13:53:45;54.40;;;31.70;;
75512;SDS011;64090;49.770;18.760;2022-11-14T14:19:05;63.80;;;36.50;;
75512;SDS011;64090;49.770;18.760;2022-11-14T14:21:46;55.20;;;34.40;;
75512;SDS011;64090;49.770;18.760;2022-11-14T14:30:16;55.00;;;31.80;;
75512;SDS011;64090;49.770;18.760;2022-11-14T14:35:37;54.30;;;31.40;;
75512;SDS011;64090;49.770;18.760;2022-11-14T14:40:39;49.10;;;29.20;;
75512;SDS011;64090;49.770;18.760;2022-11-14T14:43:27;50.30;;;30.00;;
75512;SDS011;64090;49.770;18.760;2022-11-14T14:46:00;53.90;;;31.10;;
75512;SDS011;64090;49.770;18.760;2022-11-14T14:48:32;53.10;;;28.70;;
75512;SDS011;64090;49.770;18.760;2022-11-14T14:51:02;52.80;;;31.60;;
75512;SDS011;64090;49.770;18.760;2022-11-14T14:53:33;55.10;;;32.90;;
75512;SDS011;64090;49.770;18.760;2022-11-14T14:56:04;53.50;;;30.10;;
75512;SDS011;64090;49.770;18.760;2022-11-14T14:58:33;50.40;;;30.10;;
75512;SDS011;64090;49.770;18.760;2022-11-14T15:01:08;51.30;;;29.80;;
75512;SDS011;64090;49.770;18.760;2022-11-14T15:03:55;53.80;;;33.60;;
75512;SDS011;64090;49.770;18.760;2022-11-14T15:06:31;47.30;;;27.70;;
75512;SDS011;64090;49.770;18.760;2022-11-14T15:09:08;52.30;;;29.20;;
75512;SDS011;64090;49.770;18.760;2022-11-14T15:11:43;50.80;;;28.40;;
75512;SDS011;64090;49.770;18.760;2022-11-14T15:14:18;46.30;;;27.00;;
75512;SDS011;64090;49.770;18.760;2022-11-14T15:16:49;49.60;;;28.70;;
75512;SDS011;64090;49.770;18.760;2022-11-14T15:27:52;55.70;;;32.00;;
75512;SDS011;64090;49.770;18.760;2022-11-14T15:30:30;56.80;;;27.50;;
75512;SDS011;64090;49.770;18.760;2022-11-14T15:33:30;49.50;;;28.40;;
75512;SDS011;64090;49.770;18.760;2022-11-14T15:36:08;48.70;;;29.80;;
75512;SDS011;64090;49.770;18.760;2022-11-14T15:38:58;53.00;;;32.60;;
75512;SDS011;64090;49.770;18.760;2022-11-14T15:41:28;54.10;;;32.60;;
75512;SDS011;64090;49.770;18.760;2022-11-14T15:49:08;57.50;;;32.10;;
75512;SDS011;64090;49.770;18.760;2022-11-14T15:54:26;47.30;;;29.80;;
75512;SDS011;64090;49.770;18.760;2022-11-14T15:56:57;55.10;;;31.00;;
75512;SDS011;64090;49.770;18.760;2022-11-14T15:59:28;57.50;;;33.80;;
75512;SDS011;64090;49.770;18.760;2022-11-14T16:07:19;65.00;;;36.10;;
75512;SDS011;64090;49.770;18.760;2022-11-14T16:09:48;58.00;;;33.70;;
75512;SDS011;64090;49.770;18.760;2022-11-14T16:12:17;57.10;;;31.70;;
75512;SDS011;64090;49.770;18.760;2022-11-14T16:14:44;52.10;;;30.90;;
75512;SDS011;64090;49.770;18.760;2022-11-14T16:17:13;42.20;;;24.50;;
75512;SDS011;64090;49.770;18.760;2022-11-14T16:19:44;55.40;;;33.60;;
75512;SDS011;64090;49.770;18.760;2022-11-14T16:22:12;59.30;;;33.70;;
75512;SDS011;64090;49.770;18.760;2022-11-14T16:24:43;63.20;;;36.90;;
75512;SDS011;64090;49.770;18.760;2022-11-14T16:27:12;70.30;;;42.00;;
75512;SDS011;64090;49.770;18.760;2022-11-14T16:29:40;70.40;;;39.00;;
75512;SDS011;64090;49.770;18.760;2022-11-14T16:32:09;92.50;;;54.70;;
75512;SDS011;64090;49.770;18.760;2022-11-14T16:34:37;77.00;;;41.10;;
75512;SDS011;64090;49.770;18.760;2022-11-14T16:37:05;77.70;;;42.80;;
75512;SDS011;64090;49.770;18.760;2022-11-14T16:39:33;92.80;;;52.80;;
75512;SDS011;64090;49.770;18.760;2022-11-14T16:42:01;149.20;;;64.30;;
75512;SDS011;64090;49.770;18.760;2022-11-14T16:44:29;85.80;;;53.40;;
75512;SDS011;64090;49.770;18.760;2022-11-14T16:47:05;92.00;;;54.30;;
75512;SDS011;64090;49.770;18.760;2022-11-14T16:49:33;78.40;;;47.20;;
75512;SDS011;64090;49.770;18.760;2022-11-14T16:52:01;91.10;;;52.00;;
75512;SDS011;64090;49.770;18.760;2022-11-14T16:54:33;84.30;;;48.80;;
75512;SDS011;64090;49.770;18.760;2022-11-14T16:57:01;77.70;;;45.20;;
75512;SDS011;64090;49.770;18.760;2022-11-14T16:59:29;71.00;;;41.90;;
75512;SDS011;64090;49.770;18.760;2022-11-14T17:01:57;71.10;;;42.40;;